Terminal Aerodrome Forecast
Issued by NWS Los Angeles, CA

Home | Current Version | Previous Version | Text Only | Print | Product List | Glossary On
Versions: 1 2 3 4 5 6 7 8 9 10 11 12 13 14 15 16 17 18 19 20 21 22 23 24 25 26 27 28 29 30 31 32
000
FTUS46 KLOX 200538
TAFSMX
TAF
KSMX 200538Z 2006/2106 30006KT P6SM SKC
     FM201000 VRB03KT 6SM BR SCT005
     FM201600 31012KT P6SM SKC
     FM202000 30020G30KT P6SM SKC
     FM210300 30015KT P6SM BKN007=

USA.gov is the U.S. government's official web portal to all federal, state and local government web resources and services.